Queen City, MO (63561)

3:52 PM CST on January 29, 2015 (GMT -0600)
APRSWXNET Lancaster MO US | Change Station
CLOSE
Current Station
Personal Weather Station
Location: Lancaster, MO
Elevation: 931 ft
Nearby Weather Stations

Elev 931 ft 40.52 °N, 92.52 °W | Updated 38 minutes ago

Overcast
Overcast
35 °F
Feels Like 29 °F
N
7
Wind Variable Wind from WNW
Gusts 0.0 mph

Today
High -- | Low -- °F
--% Chance of Precip.
Yesterday
High -- | Low -- °F
Precip. -- in
7:22 AM 5:24 PM
Waxing Gibbous, 77% visible
Pressure 30.32 in
Visibility 10.0 miles
Clouds Mostly Cloudy 2400 ft
Overcast 2900 ft
Windchill 29 °F
Dew Point 28 °F
Humidity 76%
Rainfall -999.00 in
Snow Depth Not available.
UV 1 out of 12
Pollen .80 out of 12
Air Quality Not available.
Flu Activity Not available.
METAR KIRK 292055Z AUTO 30014G20KT 10SM BKN024 OVC029 03/M03 A3029 RMK AO2 PK WND 31026/2003 SNB07E27 SLP268 P0000 60000 T00281028 53019

More Conditions Fewer Conditions

Pressure 30.32 in
Visibility 10.0 miles
Clouds Mostly Cloudy 2400 ft
Overcast 2900 ft
Windchill 29 °F
Dew Point 28 °F
Humidity 76%
Rainfall -999.00 in
Snow Depth Not available.
UV 1 out of 12
Pollen .80 out of 12
Air Quality Not available.
Flu Activity Not available.
METAR KIRK 292055Z AUTO 30014G20KT 10SM BKN024 OVC029 03/M03 A3029 RMK AO2 PK WND 31026/2003 SNB07E27 SLP268 P0000 60000 T00281028 53019

More Conditions Fewer Conditions

10-Day Weather Forecast

Almanac

Astronomy

Jan. 29, 2015 Rise Set
Actual Time
Civil Twilight
Nautical Twilight
Astronomical Twilight
Moon
Length of Visible Light
Length of Day
Tomorrow will be .
, % of the Moon is Illuminated

Today's Extremes

State Highs State Lows

Community

WunderPhotos

Upload Photos

1,791,615 photos uploaded!

WunderBlogs® & News

Nearby

Air Quality

  Air Quality AQ Index Pollutant
Not available.

Snow Depth

Station Depth Elevation

Earthquake Activity

City Distance Mag. Time & Date
Minimum magnitude displayed is 2.5.

Coastal Water Temperatures

Place Temperature

Nearby Weather Stations